sensor_id;sensor_type;location;lat;lon;timestamp;P1;durP1;ratioP1;P2;durP2;ratioP2
47635;SDS011;33364;50.766;15.338;2024-02-14T00:02:11;10.40;;;5.45;;
47635;SDS011;33364;50.766;15.338;2024-02-14T00:04:37;18.38;;;7.25;;
47635;SDS011;33364;50.766;15.338;2024-02-14T00:07:04;15.57;;;7.10;;
47635;SDS011;33364;50.766;15.338;2024-02-14T00:09:30;23.17;;;9.48;;
47635;SDS011;33364;50.766;15.338;2024-02-14T00:11:56;18.25;;;7.78;;
47635;SDS011;33364;50.766;15.338;2024-02-14T00:14:22;11.85;;;5.60;;
47635;SDS011;33364;50.766;15.338;2024-02-14T00:16:47;12.20;;;6.57;;
47635;SDS011;33364;50.766;15.338;2024-02-14T00:19:13;15.95;;;7.30;;
47635;SDS011;33364;50.766;15.338;2024-02-14T00:21:40;12.07;;;6.38;;
47635;SDS011;33364;50.766;15.338;2024-02-14T00:24:06;12.10;;;5.35;;
47635;SDS011;33364;50.766;15.338;2024-02-14T00:26:31;13.48;;;5.85;;
47635;SDS011;33364;50.766;15.338;2024-02-14T00:28:57;9.50;;;5.10;;
47635;SDS011;33364;50.766;15.338;2024-02-14T00:31:23;7.45;;;4.47;;
47635;SDS011;33364;50.766;15.338;2024-02-14T00:33:48;8.48;;;4.57;;
47635;SDS011;33364;50.766;15.338;2024-02-14T00:36:14;9.20;;;5.28;;
47635;SDS011;33364;50.766;15.338;2024-02-14T00:38:40;13.05;;;6.28;;
47635;SDS011;33364;50.766;15.338;2024-02-14T00:41:05;9.55;;;5.43;;
47635;SDS011;33364;50.766;15.338;2024-02-14T00:43:31;6.95;;;4.22;;
47635;SDS011;33364;50.766;15.338;2024-02-14T00:45:57;10.30;;;4.90;;
47635;SDS011;33364;50.766;15.338;2024-02-14T00:48:23;8.13;;;4.85;;
47635;SDS011;33364;50.766;15.338;2024-02-14T00:50:49;7.72;;;4.35;;
47635;SDS011;33364;50.766;15.338;2024-02-14T00:53:15;9.27;;;4.32;;
47635;SDS011;33364;50.766;15.338;2024-02-14T00:55:40;6.50;;;3.33;;
47635;SDS011;33364;50.766;15.338;2024-02-14T00:58:06;10.85;;;4.65;;
47635;SDS011;33364;50.766;15.338;2024-02-14T01:00:32;8.25;;;4.07;;
47635;SDS011;33364;50.766;15.338;2024-02-14T01:02:58;10.07;;;5.00;;
47635;SDS011;33364;50.766;15.338;2024-02-14T01:05:24;7.78;;;4.35;;
47635;SDS011;33364;50.766;15.338;2024-02-14T01:07:50;6.38;;;3.70;;
47635;SDS011;33364;50.766;15.338;2024-02-14T01:10:16;4.93;;;3.03;;
47635;SDS011;33364;50.766;15.338;2024-02-14T01:12:44;6.35;;;3.53;;
47635;SDS011;33364;50.766;15.338;2024-02-14T01:15:09;8.73;;;4.32;;
47635;SDS011;33364;50.766;15.338;2024-02-14T01:17:35;6.88;;;4.25;;
47635;SDS011;33364;50.766;15.338;2024-02-14T01:20:03;10.73;;;4.10;;
47635;SDS011;33364;50.766;15.338;2024-02-14T01:22:31;7.18;;;3.70;;
47635;SDS011;33364;50.766;15.338;2024-02-14T01:24:57;5.32;;;3.67;;
47635;SDS011;33364;50.766;15.338;2024-02-14T01:27:24;7.90;;;4.50;;
47635;SDS011;33364;50.766;15.338;2024-02-14T01:29:50;6.22;;;4.53;;
47635;SDS011;33364;50.766;15.338;2024-02-14T01:32:16;9.77;;;5.18;;
47635;SDS011;33364;50.766;15.338;2024-02-14T01:34:42;7.22;;;3.75;;
47635;SDS011;33364;50.766;15.338;2024-02-14T01:37:08;4.05;;;2.72;;
47635;SDS011;33364;50.766;15.338;2024-02-14T01:39:35;5.85;;;2.72;;
47635;SDS011;33364;50.766;15.338;2024-02-14T01:42:01;3.75;;;2.58;;
47635;SDS011;33364;50.766;15.338;2024-02-14T01:44:32;7.80;;;4.45;;
47635;SDS011;33364;50.766;15.338;2024-02-14T01:47:02;6.95;;;4.38;;
47635;SDS011;33364;50.766;15.338;2024-02-14T01:49:27;8.38;;;3.63;;
47635;SDS011;33364;50.766;15.338;2024-02-14T01:51:55;6.53;;;3.78;;
47635;SDS011;33364;50.766;15.338;2024-02-14T01:54:26;5.40;;;3.33;;
47635;SDS011;33364;50.766;15.338;2024-02-14T01:56:53;7.82;;;3.63;;
47635;SDS011;33364;50.766;15.338;2024-02-14T01:59:21;6.93;;;4.05;;
47635;SDS011;33364;50.766;15.338;2024-02-14T02:01:49;5.75;;;3.72;;
47635;SDS011;33364;50.766;15.338;2024-02-14T02:04:17;5.72;;;3.53;;
47635;SDS011;33364;50.766;15.338;2024-02-14T02:06:44;6.80;;;4.13;;
47635;SDS011;33364;50.766;15.338;2024-02-14T02:09:09;12.63;;;6.70;;
47635;SDS011;33364;50.766;15.338;2024-02-14T02:11:51;8.52;;;3.97;;
47635;SDS011;33364;50.766;15.338;2024-02-14T02:14:21;6.30;;;4.20;;
47635;SDS011;33364;50.766;15.338;2024-02-14T02:16:47;7.15;;;4.32;;
47635;SDS011;33364;50.766;15.338;2024-02-14T02:19:14;6.20;;;4.18;;
47635;SDS011;33364;50.766;15.338;2024-02-14T02:21:41;6.43;;;3.95;;
47635;SDS011;33364;50.766;15.338;2024-02-14T02:24:11;9.48;;;3.75;;
47635;SDS011;33364;50.766;15.338;2024-02-14T02:26:37;8.52;;;3.35;;
47635;SDS011;33364;50.766;15.338;2024-02-14T02:29:03;6.78;;;3.78;;
47635;SDS011;33364;50.766;15.338;2024-02-14T02:31:32;6.85;;;4.18;;
47635;SDS011;33364;50.766;15.338;2024-02-14T02:33:57;5.30;;;3.80;;
47635;SDS011;33364;50.766;15.338;2024-02-14T02:36:24;6.53;;;3.92;;
47635;SDS011;33364;50.766;15.338;2024-02-14T02:38:50;7.50;;;3.90;;
47635;SDS011;33364;50.766;15.338;2024-02-14T02:41:16;8.50;;;4.03;;
47635;SDS011;33364;50.766;15.338;2024-02-14T02:43:41;6.82;;;3.50;;
47635;SDS011;33364;50.766;15.338;2024-02-14T02:46:10;5.45;;;3.83;;
47635;SDS011;33364;50.766;15.338;2024-02-14T02:48:36;9.23;;;3.40;;
47635;SDS011;33364;50.766;15.338;2024-02-14T02:51:02;6.05;;;3.83;;
47635;SDS011;33364;50.766;15.338;2024-02-14T02:53:27;8.13;;;3.92;;
47635;SDS011;33364;50.766;15.338;2024-02-14T02:55:53;7.53;;;3.95;;
47635;SDS011;33364;50.766;15.338;2024-02-14T02:58:19;7.70;;;3.58;;
47635;SDS011;33364;50.766;15.338;2024-02-14T03:00:48;11.07;;;4.53;;
47635;SDS011;33364;50.766;15.338;2024-02-14T03:03:16;7.53;;;4.18;;
47635;SDS011;33364;50.766;15.338;2024-02-14T03:05:42;7.53;;;4.45;;
47635;SDS011;33364;50.766;15.338;2024-02-14T03:08:12;7.32;;;3.95;;
47635;SDS011;33364;50.766;15.338;2024-02-14T03:10:41;7.25;;;4.07;;
47635;SDS011;33364;50.766;15.338;2024-02-14T03:13:07;5.90;;;3.72;;
47635;SDS011;33364;50.766;15.338;2024-02-14T03:15:39;7.78;;;4.78;;
47635;SDS011;33364;50.766;15.338;2024-02-14T03:18:05;5.18;;;3.55;;
47635;SDS011;33364;50.766;15.338;2024-02-14T03:20:38;8.40;;;4.28;;
47635;SDS011;33364;50.766;15.338;2024-02-14T03:23:03;7.25;;;4.43;;
47635;SDS011;33364;50.766;15.338;2024-02-14T03:25:29;6.15;;;4.00;;
47635;SDS011;33364;50.766;15.338;2024-02-14T03:27:55;7.60;;;4.10;;
47635;SDS011;33364;50.766;15.338;2024-02-14T03:30:22;8.73;;;4.88;;
47635;SDS011;33364;50.766;15.338;2024-02-14T03:32:48;9.45;;;4.15;;
47635;SDS011;33364;50.766;15.338;2024-02-14T03:35:15;14.57;;;6.25;;
47635;SDS011;33364;50.766;15.338;2024-02-14T03:37:41;12.88;;;6.00;;
47635;SDS011;33364;50.766;15.338;2024-02-14T03:40:08;11.55;;;5.35;;
47635;SDS011;33364;50.766;15.338;2024-02-14T03:42:35;9.20;;;4.80;;
47635;SDS011;33364;50.766;15.338;2024-02-14T03:45:01;5.63;;;4.47;;
47635;SDS011;33364;50.766;15.338;2024-02-14T03:47:31;9.90;;;4.05;;
47635;SDS011;33364;50.766;15.338;2024-02-14T03:50:01;18.92;;;8.48;;
47635;SDS011;33364;50.766;15.338;2024-02-14T03:52:29;15.75;;;6.18;;
47635;SDS011;33364;50.766;15.338;2024-02-14T03:54:58;16.73;;;6.15;;
47635;SDS011;33364;50.766;15.338;2024-02-14T03:57:25;9.30;;;4.82;;
47635;SDS011;33364;50.766;15.338;2024-02-14T03:59:54;11.23;;;5.03;;
47635;SDS011;33364;50.766;15.338;2024-02-14T04:02:21;7.15;;;4.10;;
47635;SDS011;33364;50.766;15.338;2024-02-14T04:04:48;11.00;;;4.45;;
47635;SDS011;33364;50.766;15.338;2024-02-14T04:07:14;7.00;;;4.00;;
47635;SDS011;33364;50.766;15.338;2024-02-14T04:09:40;8.82;;;4.22;;
47635;SDS011;33364;50.766;15.338;2024-02-14T04:12:06;9.23;;;5.20;;
47635;SDS011;33364;50.766;15.338;2024-02-14T04:14:32;7.30;;;4.53;;
47635;SDS011;33364;50.766;15.338;2024-02-14T04:16:58;6.93;;;3.70;;
47635;SDS011;33364;50.766;15.338;2024-02-14T04:19:24;6.88;;;4.03;;
47635;SDS011;33364;50.766;15.338;2024-02-14T04:21:49;8.80;;;5.15;;
47635;SDS011;33364;50.766;15.338;2024-02-14T04:24:15;11.30;;;4.65;;
47635;SDS011;33364;50.766;15.338;2024-02-14T04:26:41;9.15;;;4.03;;
47635;SDS011;33364;50.766;15.338;2024-02-14T04:29:10;6.45;;;3.78;;
47635;SDS011;33364;50.766;15.338;2024-02-14T04:31:35;8.88;;;4.18;;
47635;SDS011;33364;50.766;15.338;2024-02-14T04:34:01;5.97;;;3.50;;
47635;SDS011;33364;50.766;15.338;2024-02-14T04:36:27;5.93;;;3.40;;
47635;SDS011;33364;50.766;15.338;2024-02-14T04:38:57;8.68;;;3.58;;
47635;SDS011;33364;50.766;15.338;2024-02-14T04:41:22;7.32;;;3.47;;
47635;SDS011;33364;50.766;15.338;2024-02-14T04:43:48;8.88;;;3.72;;
47635;SDS011;33364;50.766;15.338;2024-02-14T04:46:14;7.93;;;3.78;;
47635;SDS011;33364;50.766;15.338;2024-02-14T04:48:40;6.90;;;3.38;;
47635;SDS011;33364;50.766;15.338;2024-02-14T04:51:05;6.63;;;4.18;;
47635;SDS011;33364;50.766;15.338;2024-02-14T04:53:31;6.82;;;3.67;;
47635;SDS011;33364;50.766;15.338;2024-02-14T04:55:57;6.10;;;3.50;;
47635;SDS011;33364;50.766;15.338;2024-02-14T04:58:23;7.75;;;4.38;;
47635;SDS011;33364;50.766;15.338;2024-02-14T05:00:49;8.52;;;4.07;;
47635;SDS011;33364;50.766;15.338;2024-02-14T05:03:15;6.15;;;3.53;;
47635;SDS011;33364;50.766;15.338;2024-02-14T05:05:41;6.50;;;4.05;;
47635;SDS011;33364;50.766;15.338;2024-02-14T05:08:07;6.70;;;3.90;;
47635;SDS011;33364;50.766;15.338;2024-02-14T05:10:33;9.73;;;4.60;;
47635;SDS011;33364;50.766;15.338;2024-02-14T05:12:59;8.80;;;5.53;;
47635;SDS011;33364;50.766;15.338;2024-02-14T05:15:24;12.68;;;6.50;;
47635;SDS011;33364;50.766;15.338;2024-02-14T05:17:51;17.27;;;9.07;;
47635;SDS011;33364;50.766;15.338;2024-02-14T05:20:17;14.85;;;8.20;;
47635;SDS011;33364;50.766;15.338;2024-02-14T05:22:43;15.65;;;8.32;;
47635;SDS011;33364;50.766;15.338;2024-02-14T05:25:09;16.77;;;8.00;;
47635;SDS011;33364;50.766;15.338;2024-02-14T05:27:35;15.10;;;6.93;;
47635;SDS011;33364;50.766;15.338;2024-02-14T05:30:02;12.23;;;6.65;;
47635;SDS011;33364;50.766;15.338;2024-02-14T05:32:32;13.27;;;5.97;;
47635;SDS011;33364;50.766;15.338;2024-02-14T05:34:58;10.20;;;5.60;;
47635;SDS011;33364;50.766;15.338;2024-02-14T05:37:24;17.63;;;8.27;;
47635;SDS011;33364;50.766;15.338;2024-02-14T05:39:55;19.15;;;10.50;;
47635;SDS011;33364;50.766;15.338;2024-02-14T05:42:21;13.18;;;6.25;;
47635;SDS011;33364;50.766;15.338;2024-02-14T05:44:47;9.68;;;5.75;;
47635;SDS011;33364;50.766;15.338;2024-02-14T05:47:13;11.77;;;6.22;;
47635;SDS011;33364;50.766;15.338;2024-02-14T05:49:39;9.27;;;4.95;;
47635;SDS011;33364;50.766;15.338;2024-02-14T05:52:06;8.70;;;4.47;;
47635;SDS011;33364;50.766;15.338;2024-02-14T05:54:33;8.95;;;4.63;;
47635;SDS011;33364;50.766;15.338;2024-02-14T05:57:00;9.68;;;4.90;;
47635;SDS011;33364;50.766;15.338;2024-02-14T05:59:29;7.45;;;4.63;;
47635;SDS011;33364;50.766;15.338;2024-02-14T06:01:56;10.13;;;5.00;;
47635;SDS011;33364;50.766;15.338;2024-02-14T06:04:21;8.18;;;4.28;;
47635;SDS011;33364;50.766;15.338;2024-02-14T06:06:47;11.98;;;4.30;;
47635;SDS011;33364;50.766;15.338;2024-02-14T06:09:13;7.80;;;4.72;;
47635;SDS011;33364;50.766;15.338;2024-02-14T06:11:39;8.93;;;4.85;;
47635;SDS011;33364;50.766;15.338;2024-02-14T06:14:05;5.75;;;3.95;;
47635;SDS011;33364;50.766;15.338;2024-02-14T06:16:32;7.18;;;3.45;;
47635;SDS011;33364;50.766;15.338;2024-02-14T06:18:59;9.77;;;4.45;;
47635;SDS011;33364;50.766;15.338;2024-02-14T06:21:25;6.45;;;4.15;;
47635;SDS011;33364;50.766;15.338;2024-02-14T06:23:51;6.55;;;4.10;;
47635;SDS011;33364;50.766;15.338;2024-02-14T06:26:17;9.95;;;4.20;;
47635;SDS011;33364;50.766;15.338;2024-02-14T06:28:43;11.82;;;5.65;;
47635;SDS011;33364;50.766;15.338;2024-02-14T06:31:10;21.50;;;9.20;;
47635;SDS011;33364;50.766;15.338;2024-02-14T06:33:36;17.50;;;8.48;;
47635;SDS011;33364;50.766;15.338;2024-02-14T06:36:02;13.90;;;5.72;;
47635;SDS011;33364;50.766;15.338;2024-02-14T06:38:28;8.13;;;4.57;;
47635;SDS011;33364;50.766;15.338;2024-02-14T06:40:54;8.38;;;4.18;;
47635;SDS011;33364;50.766;15.338;2024-02-14T06:43:19;7.97;;;4.07;;
47635;SDS011;33364;50.766;15.338;2024-02-14T06:45:45;7.03;;;3.65;;
47635;SDS011;33364;50.766;15.338;2024-02-14T06:48:11;11.13;;;6.13;;
47635;SDS011;33364;50.766;15.338;2024-02-14T06:50:37;9.18;;;5.20;;
47635;SDS011;33364;50.766;15.338;2024-02-14T06:53:03;9.60;;;4.35;;
47635;SDS011;33364;50.766;15.338;2024-02-14T06:55:29;10.57;;;4.32;;
47635;SDS011;33364;50.766;15.338;2024-02-14T06:57:57;6.82;;;4.00;;
47635;SDS011;33364;50.766;15.338;2024-02-14T07:00:26;9.30;;;5.00;;
47635;SDS011;33364;50.766;15.338;2024-02-14T07:02:53;7.80;;;4.95;;
47635;SDS011;33364;50.766;15.338;2024-02-14T07:05:19;10.82;;;7.03;;
47635;SDS011;33364;50.766;15.338;2024-02-14T07:07:45;15.52;;;8.32;;
47635;SDS011;33364;50.766;15.338;2024-02-14T07:10:10;10.15;;;6.05;;
47635;SDS011;33364;50.766;15.338;2024-02-14T07:12:36;10.00;;;5.75;;
47635;SDS011;33364;50.766;15.338;2024-02-14T07:15:03;11.65;;;7.00;;
47635;SDS011;33364;50.766;15.338;2024-02-14T07:17:33;8.80;;;4.93;;
47635;SDS011;33364;50.766;15.338;2024-02-14T07:19:59;11.73;;;4.93;;
47635;SDS011;33364;50.766;15.338;2024-02-14T07:22:25;13.10;;;6.40;;
47635;SDS011;33364;50.766;15.338;2024-02-14T07:24:50;9.27;;;5.80;;
47635;SDS011;33364;50.766;15.338;2024-02-14T07:27:16;16.08;;;7.03;;
47635;SDS011;33364;50.766;15.338;2024-02-14T07:29:42;13.48;;;7.28;;
47635;SDS011;33364;50.766;15.338;2024-02-14T07:32:08;16.08;;;5.60;;
47635;SDS011;33364;50.766;15.338;2024-02-14T07:34:34;14.27;;;6.97;;
47635;SDS011;33364;50.766;15.338;2024-02-14T07:37:00;15.88;;;7.47;;
47635;SDS011;33364;50.766;15.338;2024-02-14T07:39:25;16.55;;;8.27;;
47635;SDS011;33364;50.766;15.338;2024-02-14T07:41:51;10.75;;;7.05;;
47635;SDS011;33364;50.766;15.338;2024-02-14T07:44:17;15.52;;;8.18;;
47635;SDS011;33364;50.766;15.338;2024-02-14T07:46:43;32.53;;;19.67;;
47635;SDS011;33364;50.766;15.338;2024-02-14T07:49:08;56.42;;;29.95;;
47635;SDS011;33364;50.766;15.338;2024-02-14T07:51:35;73.68;;;39.33;;
47635;SDS011;33364;50.766;15.338;2024-02-14T07:54:04;59.38;;;34.42;;
47635;SDS011;33364;50.766;15.338;2024-02-14T07:56:31;77.53;;;41.00;;
47635;SDS011;33364;50.766;15.338;2024-02-14T07:58:57;50.47;;;24.23;;
47635;SDS011;33364;50.766;15.338;2024-02-14T08:01:23;42.83;;;23.33;;
47635;SDS011;33364;50.766;15.338;2024-02-14T08:03:48;50.05;;;24.48;;
47635;SDS011;33364;50.766;15.338;2024-02-14T08:06:15;56.35;;;31.42;;
47635;SDS011;33364;50.766;15.338;2024-02-14T08:08:40;56.75;;;30.65;;
47635;SDS011;33364;50.766;15.338;2024-02-14T08:11:06;33.35;;;16.50;;
47635;SDS011;33364;50.766;15.338;2024-02-14T08:13:32;30.85;;;17.58;;
47635;SDS011;33364;50.766;15.338;2024-02-14T08:16:00;64.38;;;29.90;;
47635;SDS011;33364;50.766;15.338;2024-02-14T08:18:26;66.97;;;30.95;;
47635;SDS011;33364;50.766;15.338;2024-02-14T08:20:53;37.97;;;21.27;;
47635;SDS011;33364;50.766;15.338;2024-02-14T08:23:18;27.40;;;15.05;;
47635;SDS011;33364;50.766;15.338;2024-02-14T08:25:45;26.33;;;14.60;;
47635;SDS011;33364;50.766;15.338;2024-02-14T08:28:11;21.80;;;12.32;;
47635;SDS011;33364;50.766;15.338;2024-02-14T08:30:38;22.45;;;14.20;;
47635;SDS011;33364;50.766;15.338;2024-02-14T08:33:03;24.50;;;14.45;;
47635;SDS011;33364;50.766;15.338;2024-02-14T08:35:29;23.52;;;10.88;;
47635;SDS011;33364;50.766;15.338;2024-02-14T08:37:55;14.98;;;8.70;;
47635;SDS011;33364;50.766;15.338;2024-02-14T08:40:21;20.02;;;10.52;;
47635;SDS011;33364;50.766;15.338;2024-02-14T08:42:46;19.67;;;10.85;;
47635;SDS011;33364;50.766;15.338;2024-02-14T08:45:12;13.88;;;6.78;;
47635;SDS011;33364;50.766;15.338;2024-02-14T08:47:38;14.38;;;6.53;;
47635;SDS011;33364;50.766;15.338;2024-02-14T08:50:05;21.63;;;8.88;;
47635;SDS011;33364;50.766;15.338;2024-02-14T08:52:31;23.88;;;11.38;;
47635;SDS011;33364;50.766;15.338;2024-02-14T08:54:58;21.60;;;9.30;;
47635;SDS011;33364;50.766;15.338;2024-02-14T08:57:23;17.88;;;7.53;;
47635;SDS011;33364;50.766;15.338;2024-02-14T08:59:49;17.73;;;7.40;;
47635;SDS011;33364;50.766;15.338;2024-02-14T09:02:16;12.95;;;7.22;;
47635;SDS011;33364;50.766;15.338;2024-02-14T09:04:42;13.15;;;6.35;;
47635;SDS011;33364;50.766;15.338;2024-02-14T09:07:09;13.52;;;6.50;;
47635;SDS011;33364;50.766;15.338;2024-02-14T09:09:35;14.88;;;7.90;;
47635;SDS011;33364;50.766;15.338;2024-02-14T09:12:01;13.90;;;7.07;;
47635;SDS011;33364;50.766;15.338;2024-02-14T09:14:28;14.18;;;6.97;;
47635;SDS011;33364;50.766;15.338;2024-02-14T09:16:55;15.10;;;7.97;;
47635;SDS011;33364;50.766;15.338;2024-02-14T09:19:22;15.23;;;7.75;;
47635;SDS011;33364;50.766;15.338;2024-02-14T09:21:48;20.25;;;9.57;;
47635;SDS011;33364;50.766;15.338;2024-02-14T09:24:15;15.95;;;9.07;;
47635;SDS011;33364;50.766;15.338;2024-02-14T09:26:40;17.73;;;9.13;;
47635;SDS011;33364;50.766;15.338;2024-02-14T09:29:08;28.58;;;11.68;;
47635;SDS011;33364;50.766;15.338;2024-02-14T09:31:36;21.70;;;11.50;;
47635;SDS011;33364;50.766;15.338;2024-02-14T09:34:02;21.17;;;9.75;;
47635;SDS011;33364;50.766;15.338;2024-02-14T09:36:28;17.80;;;10.20;;
47635;SDS011;33364;50.766;15.338;2024-02-14T09:38:54;20.52;;;11.05;;
47635;SDS011;33364;50.766;15.338;2024-02-14T09:41:31;17.77;;;9.85;;
47635;SDS011;33364;50.766;15.338;2024-02-14T09:44:00;20.45;;;10.98;;
47635;SDS011;33364;50.766;15.338;2024-02-14T09:46:26;16.25;;;9.40;;
47635;SDS011;33364;50.766;15.338;2024-02-14T09:48:52;19.75;;;10.18;;
47635;SDS011;33364;50.766;15.338;2024-02-14T09:51:19;15.02;;;8.82;;
47635;SDS011;33364;50.766;15.338;2024-02-14T09:53:45;14.90;;;9.02;;
47635;SDS011;33364;50.766;15.338;2024-02-14T09:56:11;15.05;;;9.40;;
47635;SDS011;33364;50.766;15.338;2024-02-14T09:58:39;14.32;;;8.80;;
47635;SDS011;33364;50.766;15.338;2024-02-14T10:01:06;23.42;;;13.73;;
47635;SDS011;33364;50.766;15.338;2024-02-14T10:03:32;24.85;;;15.63;;
47635;SDS011;33364;50.766;15.338;2024-02-14T10:05:59;22.95;;;12.50;;
47635;SDS011;33364;50.766;15.338;2024-02-14T10:08:25;18.65;;;10.05;;
47635;SDS011;33364;50.766;15.338;2024-02-14T10:10:51;16.55;;;9.40;;
47635;SDS011;33364;50.766;15.338;2024-02-14T10:13:18;16.77;;;8.80;;
47635;SDS011;33364;50.766;15.338;2024-02-14T10:15:43;16.15;;;9.18;;
47635;SDS011;33364;50.766;15.338;2024-02-14T10:18:09;18.33;;;9.75;;
47635;SDS011;33364;50.766;15.338;2024-02-14T10:20:35;17.58;;;9.65;;
47635;SDS011;33364;50.766;15.338;2024-02-14T10:23:07;16.48;;;8.75;;
47635;SDS011;33364;50.766;15.338;2024-02-14T10:25:36;14.73;;;8.23;;
47635;SDS011;33364;50.766;15.338;2024-02-14T10:28:07;17.38;;;10.75;;
47635;SDS011;33364;50.766;15.338;2024-02-14T10:30:34;20.77;;;12.50;;
47635;SDS011;33364;50.766;15.338;2024-02-14T10:33:02;32.78;;;17.85;;
47635;SDS011;33364;50.766;15.338;2024-02-14T10:35:29;20.73;;;11.45;;
47635;SDS011;33364;50.766;15.338;2024-02-14T10:37:58;18.20;;;10.13;;
47635;SDS011;33364;50.766;15.338;2024-02-14T10:40:30;16.25;;;8.70;;
47635;SDS011;33364;50.766;15.338;2024-02-14T10:42:59;16.85;;;9.63;;
47635;SDS011;33364;50.766;15.338;2024-02-14T10:45:24;19.30;;;9.43;;
47635;SDS011;33364;50.766;15.338;2024-02-14T10:47:52;16.23;;;9.13;;
47635;SDS011;33364;50.766;15.338;2024-02-14T10:50:21;16.10;;;8.57;;
47635;SDS011;33364;50.766;15.338;2024-02-14T10:52:48;16.25;;;9.70;;
47635;SDS011;33364;50.766;15.338;2024-02-14T10:55:15;15.10;;;7.97;;
47635;SDS011;33364;50.766;15.338;2024-02-14T10:57:42;14.88;;;7.75;;
47635;SDS011;33364;50.766;15.338;2024-02-14T11:00:10;14.70;;;8.13;;
47635;SDS011;33364;50.766;15.338;2024-02-14T11:02:40;20.67;;;12.18;;
47635;SDS011;33364;50.766;15.338;2024-02-14T11:05:15;34.90;;;17.13;;
47635;SDS011;33364;50.766;15.338;2024-02-14T11:07:45;44.13;;;19.00;;
47635;SDS011;33364;50.766;15.338;2024-02-14T11:10:17;33.70;;;14.77;;
47635;SDS011;33364;50.766;15.338;2024-02-14T11:12:45;32.55;;;16.52;;
47635;SDS011;33364;50.766;15.338;2024-02-14T11:15:16;40.95;;;18.08;;
47635;SDS011;33364;50.766;15.338;2024-02-14T11:17:44;40.60;;;17.25;;
47635;SDS011;33364;50.766;15.338;2024-02-14T11:20:16;67.18;;;30.70;;
47635;SDS011;33364;50.766;15.338;2024-02-14T11:22:57;36.72;;;18.52;;
47635;SDS011;33364;50.766;15.338;2024-02-14T11:25:29;22.83;;;10.55;;
47635;SDS011;33364;50.766;15.338;2024-02-14T11:27:57;35.10;;;17.15;;
47635;SDS011;33364;50.766;15.338;2024-02-14T11:30:29;24.05;;;13.73;;
47635;SDS011;33364;50.766;15.338;2024-02-14T11:33:18;15.57;;;8.32;;
47635;SDS011;33364;50.766;15.338;2024-02-14T11:35:43;12.18;;;6.82;;
47635;SDS011;33364;50.766;15.338;2024-02-14T11:38:11;13.02;;;6.63;;
47635;SDS011;33364;50.766;15.338;2024-02-14T11:40:36;16.52;;;9.75;;
47635;SDS011;33364;50.766;15.338;2024-02-14T11:43:05;36.60;;;23.98;;
47635;SDS011;33364;50.766;15.338;2024-02-14T11:45:35;19.50;;;14.10;;
47635;SDS011;33364;50.766;15.338;2024-02-14T11:48:04;13.93;;;9.00;;
47635;SDS011;33364;50.766;15.338;2024-02-14T11:50:31;13.38;;;8.30;;
47635;SDS011;33364;50.766;15.338;2024-02-14T11:52:58;21.67;;;14.43;;
47635;SDS011;33364;50.766;15.338;2024-02-14T11:55:30;14.23;;;7.97;;
47635;SDS011;33364;50.766;15.338;2024-02-14T11:57:57;15.30;;;7.40;;
47635;SDS011;33364;50.766;15.338;2024-02-14T12:00:23;16.17;;;8.82;;
47635;SDS011;33364;50.766;15.338;2024-02-14T12:02:50;16.88;;;8.77;;
47635;SDS011;33364;50.766;15.338;2024-02-14T12:05:17;14.63;;;8.38;;
47635;SDS011;33364;50.766;15.338;2024-02-14T12:07:47;17.65;;;9.35;;
47635;SDS011;33364;50.766;15.338;2024-02-14T12:10:13;13.43;;;8.23;;
47635;SDS011;33364;50.766;15.338;2024-02-14T12:12:39;14.85;;;8.65;;
47635;SDS011;33364;50.766;15.338;2024-02-14T12:15:06;17.85;;;8.50;;
47635;SDS011;33364;50.766;15.338;2024-02-14T12:17:35;17.17;;;9.45;;
47635;SDS011;33364;50.766;15.338;2024-02-14T12:20:10;17.75;;;8.98;;
47635;SDS011;33364;50.766;15.338;2024-02-14T12:22:38;18.15;;;8.40;;
47635;SDS011;33364;50.766;15.338;2024-02-14T12:25:07;19.13;;;9.93;;
47635;SDS011;33364;50.766;15.338;2024-02-14T12:27:36;18.77;;;10.25;;
47635;SDS011;33364;50.766;15.338;2024-02-14T12:30:04;18.67;;;10.55;;
47635;SDS011;33364;50.766;15.338;2024-02-14T12:32:32;21.77;;;11.98;;
47635;SDS011;33364;50.766;15.338;2024-02-14T12:34:58;18.23;;;11.70;;
47635;SDS011;33364;50.766;15.338;2024-02-14T12:37:25;23.20;;;12.88;;
47635;SDS011;33364;50.766;15.338;2024-02-14T12:39:50;25.23;;;12.63;;
47635;SDS011;33364;50.766;15.338;2024-02-14T12:42:16;27.02;;;13.20;;
47635;SDS011;33364;50.766;15.338;2024-02-14T12:44:50;27.60;;;13.57;;
47635;SDS011;33364;50.766;15.338;2024-02-14T12:47:18;29.08;;;13.60;;
47635;SDS011;33364;50.766;15.338;2024-02-14T12:49:46;22.27;;;12.10;;
47635;SDS011;33364;50.766;15.338;2024-02-14T12:52:13;29.63;;;12.63;;
47635;SDS011;33364;50.766;15.338;2024-02-14T12:54:38;25.25;;;12.05;;
47635;SDS011;33364;50.766;15.338;2024-02-14T12:57:04;24.67;;;11.02;;
47635;SDS011;33364;50.766;15.338;2024-02-14T12:59:30;27.25;;;12.95;;
47635;SDS011;33364;50.766;15.338;2024-02-14T13:01:57;17.50;;;10.85;;
47635;SDS011;33364;50.766;15.338;2024-02-14T13:04:22;33.47;;;14.90;;
47635;SDS011;33364;50.766;15.338;2024-02-14T13:06:48;121.57;;;54.92;;
47635;SDS011;33364;50.766;15.338;2024-02-14T13:09:14;108.25;;;43.08;;
47635;SDS011;33364;50.766;15.338;2024-02-14T13:11:40;98.07;;;36.47;;
47635;SDS011;33364;50.766;15.338;2024-02-14T13:14:08;125.43;;;43.92;;
47635;SDS011;33364;50.766;15.338;2024-02-14T13:16:34;99.97;;;39.03;;
47635;SDS011;33364;50.766;15.338;2024-02-14T13:19:00;58.47;;;22.15;;
47635;SDS011;33364;50.766;15.338;2024-02-14T13:21:26;66.70;;;26.52;;
47635;SDS011;33364;50.766;15.338;2024-02-14T13:23:54;79.18;;;27.73;;
47635;SDS011;33364;50.766;15.338;2024-02-14T13:26:20;85.15;;;33.05;;
47635;SDS011;33364;50.766;15.338;2024-02-14T13:28:45;87.32;;;32.28;;
47635;SDS011;33364;50.766;15.338;2024-02-14T13:31:11;74.88;;;27.15;;
47635;SDS011;33364;50.766;15.338;2024-02-14T13:33:37;59.80;;;26.48;;
47635;SDS011;33364;50.766;15.338;2024-02-14T13:36:03;52.88;;;22.27;;
47635;SDS011;33364;50.766;15.338;2024-02-14T13:38:28;47.78;;;21.33;;
47635;SDS011;33364;50.766;15.338;2024-02-14T13:40:55;40.35;;;18.85;;
47635;SDS011;33364;50.766;15.338;2024-02-14T13:43:20;36.00;;;16.83;;
47635;SDS011;33364;50.766;15.338;2024-02-14T13:45:46;43.28;;;21.58;;
47635;SDS011;33364;50.766;15.338;2024-02-14T13:48:13;44.30;;;23.40;;
47635;SDS011;33364;50.766;15.338;2024-02-14T13:50:39;33.47;;;17.48;;
47635;SDS011;33364;50.766;15.338;2024-02-14T13:53:06;32.22;;;16.58;;
47635;SDS011;33364;50.766;15.338;2024-02-14T13:55:32;35.30;;;16.45;;
47635;SDS011;33364;50.766;15.338;2024-02-14T13:57:58;27.10;;;15.60;;
47635;SDS011;33364;50.766;15.338;2024-02-14T14:00:23;34.58;;;15.13;;
47635;SDS011;33364;50.766;15.338;2024-02-14T14:02:49;33.55;;;16.40;;
47635;SDS011;33364;50.766;15.338;2024-02-14T14:05:15;29.75;;;16.27;;
47635;SDS011;33364;50.766;15.338;2024-02-14T14:07:41;32.15;;;17.52;;
47635;SDS011;33364;50.766;15.338;2024-02-14T14:10:10;35.13;;;17.85;;
47635;SDS011;33364;50.766;15.338;2024-02-14T14:12:36;33.35;;;18.75;;
47635;SDS011;33364;50.766;15.338;2024-02-14T14:15:02;29.10;;;17.15;;
47635;SDS011;33364;50.766;15.338;2024-02-14T14:17:28;31.88;;;16.02;;
47635;SDS011;33364;50.766;15.338;2024-02-14T14:19:54;31.00;;;16.90;;
47635;SDS011;33364;50.766;15.338;2024-02-14T14:22:20;28.38;;;15.18;;